sensor_id;sensor_type;location;lat;lon;timestamp;P1;durP1;ratioP1;P2;durP2;ratioP2
76589;SDS011;65471;55.908;37.880;2023-05-23T00:01:41;30.17;;;16.58;;
76589;SDS011;65471;55.908;37.880;2023-05-23T00:04:09;35.40;;;16.23;;
76589;SDS011;65471;55.908;37.880;2023-05-23T00:06:36;40.90;;;16.33;;
76589;SDS011;65471;55.908;37.880;2023-05-23T00:09:04;26.00;;;16.13;;
76589;SDS011;65471;55.908;37.880;2023-05-23T00:11:31;30.80;;;16.48;;
76589;SDS011;65471;55.908;37.880;2023-05-23T00:13:58;34.60;;;17.35;;
76589;SDS011;65471;55.908;37.880;2023-05-23T00:16:27;37.38;;;15.57;;
76589;SDS011;65471;55.908;37.880;2023-05-23T00:18:54;28.10;;;15.82;;
76589;SDS011;65471;55.908;37.880;2023-05-23T00:21:23;33.28;;;15.77;;
76589;SDS011;65471;55.908;37.880;2023-05-23T00:23:50;34.90;;;14.88;;
76589;SDS011;65471;55.908;37.880;2023-05-23T00:26:19;29.65;;;16.48;;
76589;SDS011;65471;55.908;37.880;2023-05-23T00:28:47;25.90;;;16.10;;
76589;SDS011;65471;55.908;37.880;2023-05-23T00:31:14;36.25;;;16.50;;
76589;SDS011;65471;55.908;37.880;2023-05-23T00:33:41;38.45;;;15.70;;
76589;SDS011;65471;55.908;37.880;2023-05-23T00:36:08;39.15;;;17.67;;
76589;SDS011;65471;55.908;37.880;2023-05-23T00:38:34;28.35;;;15.80;;
76589;SDS011;65471;55.908;37.880;2023-05-23T00:41:01;30.75;;;16.02;;
76589;SDS011;65471;55.908;37.880;2023-05-23T00:43:28;31.35;;;16.80;;
76589;SDS011;65471;55.908;37.880;2023-05-23T00:45:55;39.33;;;16.58;;
76589;SDS011;65471;55.908;37.880;2023-05-23T00:48:24;34.33;;;16.38;;
76589;SDS011;65471;55.908;37.880;2023-05-23T00:50:52;34.05;;;16.67;;
76589;SDS011;65471;55.908;37.880;2023-05-23T00:53:20;37.05;;;15.88;;
76589;SDS011;65471;55.908;37.880;2023-05-23T00:55:47;37.42;;;15.68;;
76589;SDS011;65471;55.908;37.880;2023-05-23T00:58:14;29.10;;;15.82;;
76589;SDS011;65471;55.908;37.880;2023-05-23T01:00:43;29.23;;;17.15;;
76589;SDS011;65471;55.908;37.880;2023-05-23T01:03:15;39.85;;;16.52;;
76589;SDS011;65471;55.908;37.880;2023-05-23T01:05:44;28.17;;;17.63;;
76589;SDS011;65471;55.908;37.880;2023-05-23T01:08:11;36.33;;;16.08;;
76589;SDS011;65471;55.908;37.880;2023-05-23T01:10:38;27.88;;;16.20;;
76589;SDS011;65471;55.908;37.880;2023-05-23T01:16:06;27.00;;;16.23;;
76589;SDS011;65471;55.908;37.880;2023-05-23T01:19:03;32.50;;;15.40;;
76589;SDS011;65471;55.908;37.880;2023-05-23T01:22:02;32.65;;;16.00;;
76589;SDS011;65471;55.908;37.880;2023-05-23T01:24:51;26.65;;;16.10;;
76589;SDS011;65471;55.908;37.880;2023-05-23T01:30:11;25.63;;;15.55;;
76589;SDS011;65471;55.908;37.880;2023-05-23T01:32:39;25.63;;;15.60;;
76589;SDS011;65471;55.908;37.880;2023-05-23T01:35:07;39.78;;;16.83;;
76589;SDS011;65471;55.908;37.880;2023-05-23T01:40:02;28.10;;;15.95;;
76589;SDS011;65471;55.908;37.880;2023-05-23T01:42:30;36.95;;;16.00;;
76589;SDS011;65471;55.908;37.880;2023-05-23T01:44:58;27.02;;;15.82;;
76589;SDS011;65471;55.908;37.880;2023-05-23T01:47:25;34.67;;;16.02;;
76589;SDS011;65471;55.908;37.880;2023-05-23T01:49:52;28.98;;;16.30;;
76589;SDS011;65471;55.908;37.880;2023-05-23T01:52:20;33.35;;;16.45;;
76589;SDS011;65471;55.908;37.880;2023-05-23T01:54:48;42.47;;;16.00;;
76589;SDS011;65471;55.908;37.880;2023-05-23T01:57:17;27.80;;;15.77;;
76589;SDS011;65471;55.908;37.880;2023-05-23T01:59:45;26.88;;;18.10;;
76589;SDS011;65471;55.908;37.880;2023-05-23T02:02:12;32.85;;;15.00;;
76589;SDS011;65471;55.908;37.880;2023-05-23T02:04:39;36.25;;;16.13;;
76589;SDS011;65471;55.908;37.880;2023-05-23T02:07:06;47.55;;;19.63;;
76589;SDS011;65471;55.908;37.880;2023-05-23T02:09:33;33.38;;;16.80;;
76589;SDS011;65471;55.908;37.880;2023-05-23T02:12:00;31.88;;;16.92;;
76589;SDS011;65471;55.908;37.880;2023-05-23T02:14:27;73.38;;;28.48;;
76589;SDS011;65471;55.908;37.880;2023-05-23T02:16:54;30.48;;;16.80;;
76589;SDS011;65471;55.908;37.880;2023-05-23T02:19:21;36.67;;;16.58;;
76589;SDS011;65471;55.908;37.880;2023-05-23T02:21:48;52.42;;;23.98;;
76589;SDS011;65471;55.908;37.880;2023-05-23T02:24:15;32.83;;;18.30;;
76589;SDS011;65471;55.908;37.880;2023-05-23T02:26:42;45.50;;;16.00;;
76589;SDS011;65471;55.908;37.880;2023-05-23T02:29:09;30.95;;;16.48;;
76589;SDS011;65471;55.908;37.880;2023-05-23T02:31:36;28.23;;;16.38;;
76589;SDS011;65471;55.908;37.880;2023-05-23T02:34:03;35.20;;;16.77;;
76589;SDS011;65471;55.908;37.880;2023-05-23T02:36:29;25.42;;;15.65;;
76589;SDS011;65471;55.908;37.880;2023-05-23T02:38:58;32.83;;;16.15;;
76589;SDS011;65471;55.908;37.880;2023-05-23T02:41:25;31.17;;;16.10;;
76589;SDS011;65471;55.908;37.880;2023-05-23T02:43:52;33.63;;;15.00;;
76589;SDS011;65471;55.908;37.880;2023-05-23T02:46:19;30.02;;;15.32;;
76589;SDS011;65471;55.908;37.880;2023-05-23T02:48:46;34.72;;;16.98;;
76589;SDS011;65471;55.908;37.880;2023-05-23T02:51:13;34.10;;;16.33;;
76589;SDS011;65471;55.908;37.880;2023-05-23T02:53:40;32.40;;;15.65;;
76589;SDS011;65471;55.908;37.880;2023-05-23T02:56:07;31.27;;;15.02;;
76589;SDS011;65471;55.908;37.880;2023-05-23T02:58:35;32.22;;;15.48;;
76589;SDS011;65471;55.908;37.880;2023-05-23T03:01:02;26.88;;;15.50;;
76589;SDS011;65471;55.908;37.880;2023-05-23T03:03:33;33.65;;;16.02;;
76589;SDS011;65471;55.908;37.880;2023-05-23T03:06:03;29.25;;;16.67;;
76589;SDS011;65471;55.908;37.880;2023-05-23T03:08:31;36.40;;;17.23;;
76589;SDS011;65471;55.908;37.880;2023-05-23T03:10:58;30.90;;;17.02;;
76589;SDS011;65471;55.908;37.880;2023-05-23T03:13:25;25.58;;;15.43;;
76589;SDS011;65471;55.908;37.880;2023-05-23T03:15:52;29.15;;;15.48;;
76589;SDS011;65471;55.908;37.880;2023-05-23T03:18:19;30.75;;;16.50;;
76589;SDS011;65471;55.908;37.880;2023-05-23T03:20:46;38.75;;;17.33;;
76589;SDS011;65471;55.908;37.880;2023-05-23T03:23:13;32.20;;;16.05;;
76589;SDS011;65471;55.908;37.880;2023-05-23T03:25:41;45.45;;;15.52;;
76589;SDS011;65471;55.908;37.880;2023-05-23T03:30:37;36.83;;;16.30;;
76589;SDS011;65471;55.908;37.880;2023-05-23T03:33:04;31.77;;;15.75;;
76589;SDS011;65471;55.908;37.880;2023-05-23T03:35:32;33.30;;;16.52;;
76589;SDS011;65471;55.908;37.880;2023-05-23T03:37:59;29.83;;;17.05;;
76589;SDS011;65471;55.908;37.880;2023-05-23T03:40:26;37.50;;;15.75;;
76589;SDS011;65471;55.908;37.880;2023-05-23T03:43:05;29.33;;;15.43;;
76589;SDS011;65471;55.908;37.880;2023-05-23T03:45:32;27.23;;;15.57;;
76589;SDS011;65471;55.908;37.880;2023-05-23T03:48:00;29.55;;;15.25;;
76589;SDS011;65471;55.908;37.880;2023-05-23T03:50:27;31.10;;;15.85;;
76589;SDS011;65471;55.908;37.880;2023-05-23T03:52:54;29.27;;;15.90;;
76589;SDS011;65471;55.908;37.880;2023-05-23T03:55:21;27.58;;;15.45;;
76589;SDS011;65471;55.908;37.880;2023-05-23T03:57:52;35.43;;;16.40;;
76589;SDS011;65471;55.908;37.880;2023-05-23T04:00:19;41.97;;;17.35;;
76589;SDS011;65471;55.908;37.880;2023-05-23T04:02:46;38.20;;;15.65;;
76589;SDS011;65471;55.908;37.880;2023-05-23T04:05:13;27.80;;;15.88;;
76589;SDS011;65471;55.908;37.880;2023-05-23T04:07:41;32.08;;;15.60;;
76589;SDS011;65471;55.908;37.880;2023-05-23T04:10:08;37.35;;;15.93;;
76589;SDS011;65471;55.908;37.880;2023-05-23T04:12:36;30.58;;;16.10;;
76589;SDS011;65471;55.908;37.880;2023-05-23T04:15:07;43.35;;;15.25;;
76589;SDS011;65471;55.908;37.880;2023-05-23T04:17:34;33.35;;;15.23;;
76589;SDS011;65471;55.908;37.880;2023-05-23T04:20:05;32.63;;;14.55;;
76589;SDS011;65471;55.908;37.880;2023-05-23T04:22:35;35.25;;;15.63;;
76589;SDS011;65471;55.908;37.880;2023-05-23T04:25:02;29.58;;;15.30;;
76589;SDS011;65471;55.908;37.880;2023-05-23T04:27:29;28.58;;;15.50;;
76589;SDS011;65471;55.908;37.880;2023-05-23T04:29:56;27.85;;;15.52;;
76589;SDS011;65471;55.908;37.880;2023-05-23T04:32:23;36.70;;;16.05;;
76589;SDS011;65471;55.908;37.880;2023-05-23T04:34:51;41.92;;;14.77;;
76589;SDS011;65471;55.908;37.880;2023-05-23T04:37:18;35.80;;;15.73;;
76589;SDS011;65471;55.908;37.880;2023-05-23T04:39:51;38.38;;;15.25;;
76589;SDS011;65471;55.908;37.880;2023-05-23T04:42:19;34.97;;;16.42;;
76589;SDS011;65471;55.908;37.880;2023-05-23T04:44:50;47.33;;;15.07;;
76589;SDS011;65471;55.908;37.880;2023-05-23T04:47:18;33.13;;;14.55;;
76589;SDS011;65471;55.908;37.880;2023-05-23T04:49:45;25.33;;;14.45;;
76589;SDS011;65471;55.908;37.880;2023-05-23T04:52:12;34.83;;;16.00;;
76589;SDS011;65471;55.908;37.880;2023-05-23T04:54:39;41.50;;;15.43;;
76589;SDS011;65471;55.908;37.880;2023-05-23T04:57:10;26.15;;;14.30;;
76589;SDS011;65471;55.908;37.880;2023-05-23T04:59:38;33.80;;;14.52;;
76589;SDS011;65471;55.908;37.880;2023-05-23T05:02:05;36.38;;;15.38;;
76589;SDS011;65471;55.908;37.880;2023-05-23T05:04:32;28.70;;;13.23;;
76589;SDS011;65471;55.908;37.880;2023-05-23T05:06:59;35.28;;;13.23;;
76589;SDS011;65471;55.908;37.880;2023-05-23T05:09:29;34.97;;;13.02;;
76589;SDS011;65471;55.908;37.880;2023-05-23T05:11:57;35.72;;;12.13;;
76589;SDS011;65471;55.908;37.880;2023-05-23T05:14:25;37.75;;;12.43;;
76589;SDS011;65471;55.908;37.880;2023-05-23T05:16:52;28.85;;;11.80;;
76589;SDS011;65471;55.908;37.880;2023-05-23T05:19:20;37.40;;;12.43;;
76589;SDS011;65471;55.908;37.880;2023-05-23T05:21:47;35.28;;;11.55;;
76589;SDS011;65471;55.908;37.880;2023-05-23T05:24:14;34.70;;;11.65;;
76589;SDS011;65471;55.908;37.880;2023-05-23T05:26:41;40.72;;;12.55;;
76589;SDS011;65471;55.908;37.880;2023-05-23T05:29:08;32.25;;;12.65;;
76589;SDS011;65471;55.908;37.880;2023-05-23T05:31:36;28.05;;;13.18;;
76589;SDS011;65471;55.908;37.880;2023-05-23T05:34:03;24.17;;;12.05;;
76589;SDS011;65471;55.908;37.880;2023-05-23T05:36:30;27.45;;;12.55;;
76589;SDS011;65471;55.908;37.880;2023-05-23T05:38:58;25.02;;;11.35;;
76589;SDS011;65471;55.908;37.880;2023-05-23T05:41:24;23.88;;;12.00;;
76589;SDS011;65471;55.908;37.880;2023-05-23T05:43:52;27.70;;;11.80;;
76589;SDS011;65471;55.908;37.880;2023-05-23T05:46:19;20.42;;;11.90;;
76589;SDS011;65471;55.908;37.880;2023-05-23T05:48:46;33.83;;;12.18;;
76589;SDS011;65471;55.908;37.880;2023-05-23T05:51:13;34.97;;;13.07;;
76589;SDS011;65471;55.908;37.880;2023-05-23T05:53:40;38.92;;;12.88;;
76589;SDS011;65471;55.908;37.880;2023-05-23T05:56:07;28.25;;;11.32;;
76589;SDS011;65471;55.908;37.880;2023-05-23T05:58:34;30.40;;;12.70;;
76589;SDS011;65471;55.908;37.880;2023-05-23T06:01:01;34.33;;;13.25;;
76589;SDS011;65471;55.908;37.880;2023-05-23T06:03:29;30.13;;;13.05;;
76589;SDS011;65471;55.908;37.880;2023-05-23T06:05:56;21.95;;;9.63;;
76589;SDS011;65471;55.908;37.880;2023-05-23T06:08:23;53.90;;;11.23;;
76589;SDS011;65471;55.908;37.880;2023-05-23T06:10:50;26.42;;;11.32;;
76589;SDS011;65471;55.908;37.880;2023-05-23T06:13:17;26.17;;;11.30;;
76589;SDS011;65471;55.908;37.880;2023-05-23T06:15:44;24.35;;;11.15;;
76589;SDS011;65471;55.908;37.880;2023-05-23T06:18:11;30.17;;;11.93;;
76589;SDS011;65471;55.908;37.880;2023-05-23T06:20:38;31.27;;;11.38;;
76589;SDS011;65471;55.908;37.880;2023-05-23T06:23:05;27.88;;;9.75;;
76589;SDS011;65471;55.908;37.880;2023-05-23T06:25:32;19.13;;;9.52;;
76589;SDS011;65471;55.908;37.880;2023-05-23T06:27:59;25.08;;;9.10;;
76589;SDS011;65471;55.908;37.880;2023-05-23T06:30:26;28.42;;;9.00;;
76589;SDS011;65471;55.908;37.880;2023-05-23T06:35:22;32.00;;;8.98;;
76589;SDS011;65471;55.908;37.880;2023-05-23T06:37:49;24.05;;;9.02;;
76589;SDS011;65471;55.908;37.880;2023-05-23T06:40:15;21.58;;;9.75;;
76589;SDS011;65471;55.908;37.880;2023-05-23T06:42:42;33.67;;;10.20;;
76589;SDS011;65471;55.908;37.880;2023-05-23T06:45:09;34.00;;;10.00;;
76589;SDS011;65471;55.908;37.880;2023-05-23T06:47:39;36.00;;;9.95;;
76589;SDS011;65471;55.908;37.880;2023-05-23T06:50:09;20.83;;;9.30;;
76589;SDS011;65471;55.908;37.880;2023-05-23T06:52:36;31.98;;;10.38;;
76589;SDS011;65471;55.908;37.880;2023-05-23T06:55:04;31.13;;;9.88;;
76589;SDS011;65471;55.908;37.880;2023-05-23T06:57:31;32.45;;;9.43;;
76589;SDS011;65471;55.908;37.880;2023-05-23T06:59:58;30.70;;;10.52;;
76589;SDS011;65471;55.908;37.880;2023-05-23T07:02:25;18.48;;;9.52;;
76589;SDS011;65471;55.908;37.880;2023-05-23T07:04:52;23.90;;;9.98;;
76589;SDS011;65471;55.908;37.880;2023-05-23T07:07:19;33.22;;;9.95;;
76589;SDS011;65471;55.908;37.880;2023-05-23T07:09:46;31.13;;;9.07;;
76589;SDS011;65471;55.908;37.880;2023-05-23T07:12:13;16.95;;;9.32;;
76589;SDS011;65471;55.908;37.880;2023-05-23T07:14:40;18.85;;;8.40;;
76589;SDS011;65471;55.908;37.880;2023-05-23T07:17:07;25.10;;;8.02;;
76589;SDS011;65471;55.908;37.880;2023-05-23T07:19:34;34.72;;;9.05;;
76589;SDS011;65471;55.908;37.880;2023-05-23T07:22:01;31.95;;;9.15;;
76589;SDS011;65471;55.908;37.880;2023-05-23T07:24:28;31.25;;;8.32;;
76589;SDS011;65471;55.908;37.880;2023-05-23T07:26:55;23.13;;;8.35;;
76589;SDS011;65471;55.908;37.880;2023-05-23T07:29:22;32.85;;;7.85;;
76589;SDS011;65471;55.908;37.880;2023-05-23T07:31:49;40.10;;;9.63;;
76589;SDS011;65471;55.908;37.880;2023-05-23T07:34:16;45.88;;;12.32;;
76589;SDS011;65471;55.908;37.880;2023-05-23T07:36:43;73.57;;;15.85;;
76589;SDS011;65471;55.908;37.880;2023-05-23T07:39:10;59.88;;;15.50;;
76589;SDS011;65471;55.908;37.880;2023-05-23T07:41:37;50.17;;;10.73;;
76589;SDS011;65471;55.908;37.880;2023-05-23T07:44:04;23.70;;;8.05;;
76589;SDS011;65471;55.908;37.880;2023-05-23T07:46:32;26.38;;;7.80;;
76589;SDS011;65471;55.908;37.880;2023-05-23T07:48:59;30.80;;;9.95;;
76589;SDS011;65471;55.908;37.880;2023-05-23T07:51:26;19.60;;;8.43;;
76589;SDS011;65471;55.908;37.880;2023-05-23T07:53:53;197.88;;;20.00;;
76589;SDS011;65471;55.908;37.880;2023-05-23T07:56:20;52.13;;;10.27;;
76589;SDS011;65471;55.908;37.880;2023-05-23T07:58:47;29.35;;;9.15;;
76589;SDS011;65471;55.908;37.880;2023-05-23T08:01:14;34.15;;;8.35;;
76589;SDS011;65471;55.908;37.880;2023-05-23T08:03:42;15.93;;;7.00;;
76589;SDS011;65471;55.908;37.880;2023-05-23T08:06:09;29.52;;;7.20;;
76589;SDS011;65471;55.908;37.880;2023-05-23T08:08:36;18.90;;;7.47;;
76589;SDS011;65471;55.908;37.880;2023-05-23T08:11:03;27.35;;;8.20;;
76589;SDS011;65471;55.908;37.880;2023-05-23T08:13:30;37.75;;;6.85;;
76589;SDS011;65471;55.908;37.880;2023-05-23T08:15:57;24.08;;;7.05;;
76589;SDS011;65471;55.908;37.880;2023-05-23T08:18:24;14.90;;;6.28;;
76589;SDS011;65471;55.908;37.880;2023-05-23T08:20:51;16.63;;;5.72;;
76589;SDS011;65471;55.908;37.880;2023-05-23T08:23:19;22.85;;;5.68;;
76589;SDS011;65471;55.908;37.880;2023-05-23T08:25:46;22.80;;;5.80;;
76589;SDS011;65471;55.908;37.880;2023-05-23T08:28:13;18.25;;;5.43;;
76589;SDS011;65471;55.908;37.880;2023-05-23T08:30:40;26.35;;;5.95;;
76589;SDS011;65471;55.908;37.880;2023-05-23T08:33:08;10.70;;;5.20;;
76589;SDS011;65471;55.908;37.880;2023-05-23T08:35:38;11.43;;;5.90;;
76589;SDS011;65471;55.908;37.880;2023-05-23T08:38:05;16.80;;;5.45;;
76589;SDS011;65471;55.908;37.880;2023-05-23T08:40:35;21.42;;;6.20;;
76589;SDS011;65471;55.908;37.880;2023-05-23T08:43:03;18.65;;;6.40;;
76589;SDS011;65471;55.908;37.880;2023-05-23T08:45:30;13.23;;;6.15;;
76589;SDS011;65471;55.908;37.880;2023-05-23T08:47:58;13.85;;;6.10;;
76589;SDS011;65471;55.908;37.880;2023-05-23T08:50:27;22.70;;;7.25;;
76589;SDS011;65471;55.908;37.880;2023-05-23T08:55:24;18.00;;;6.47;;
76589;SDS011;65471;55.908;37.880;2023-05-23T08:57:53;16.13;;;6.70;;
76589;SDS011;65471;55.908;37.880;2023-05-23T09:00:21;20.17;;;6.50;;
76589;SDS011;65471;55.908;37.880;2023-05-23T09:02:50;19.77;;;6.60;;
76589;SDS011;65471;55.908;37.880;2023-05-23T09:05:18;17.85;;;7.50;;
76589;SDS011;65471;55.908;37.880;2023-05-23T09:07:46;13.32;;;6.85;;
76589;SDS011;65471;55.908;37.880;2023-05-23T09:10:14;14.63;;;7.68;;
76589;SDS011;65471;55.908;37.880;2023-05-23T09:12:46;22.33;;;7.45;;
76589;SDS011;65471;55.908;37.880;2023-05-23T09:15:13;21.35;;;9.57;;
76589;SDS011;65471;55.908;37.880;2023-05-23T09:17:40;31.08;;;7.95;;
76589;SDS011;65471;55.908;37.880;2023-05-23T09:20:11;29.67;;;8.82;;
76589;SDS011;65471;55.908;37.880;2023-05-23T09:22:39;16.17;;;8.18;;
76589;SDS011;65471;55.908;37.880;2023-05-23T09:25:07;16.40;;;8.70;;
76589;SDS011;65471;55.908;37.880;2023-05-23T09:27:34;19.20;;;8.15;;
76589;SDS011;65471;55.908;37.880;2023-05-23T09:30:08;12.63;;;7.88;;
76589;SDS011;65471;55.908;37.880;2023-05-23T09:32:37;15.48;;;8.60;;
76589;SDS011;65471;55.908;37.880;2023-05-23T09:35:05;20.50;;;8.10;;
76589;SDS011;65471;55.908;37.880;2023-05-23T09:37:34;20.95;;;8.40;;
76589;SDS011;65471;55.908;37.880;2023-05-23T09:40:07;16.65;;;8.32;;
76589;SDS011;65471;55.908;37.880;2023-05-23T09:42:42;24.38;;;9.00;;
76589;SDS011;65471;55.908;37.880;2023-05-23T09:45:14;24.92;;;8.63;;
76589;SDS011;65471;55.908;37.880;2023-05-23T09:48:00;19.13;;;7.72;;
76589;SDS011;65471;55.908;37.880;2023-05-23T09:50:32;11.35;;;7.75;;
76589;SDS011;65471;55.908;37.880;2023-05-23T09:53:00;24.38;;;9.00;;
76589;SDS011;65471;55.908;37.880;2023-05-23T09:55:27;15.57;;;8.13;;
76589;SDS011;65471;55.908;37.880;2023-05-23T09:57:54;18.38;;;8.27;;
76589;SDS011;65471;55.908;37.880;2023-05-23T10:00:24;20.85;;;8.15;;
76589;SDS011;65471;55.908;37.880;2023-05-23T10:08:15;21.52;;;8.63;;
76589;SDS011;65471;55.908;37.880;2023-05-23T10:11:39;15.27;;;8.82;;
76589;SDS011;65471;55.908;37.880;2023-05-23T10:13:35;19.80;;;8.70;;
76589;SDS011;65471;55.908;37.880;2023-05-23T10:16:09;26.88;;;10.30;;
76589;SDS011;65471;55.908;37.880;2023-05-23T10:18:43;16.70;;;8.23;;
76589;SDS011;65471;55.908;37.880;2023-05-23T10:21:11;27.50;;;9.70;;
76589;SDS011;65471;55.908;37.880;2023-05-23T10:23:44;20.95;;;10.07;;
76589;SDS011;65471;55.908;37.880;2023-05-23T10:26:13;18.08;;;9.90;;
76589;SDS011;65471;55.908;37.880;2023-05-23T10:28:41;16.83;;;10.37;;
76589;SDS011;65471;55.908;37.880;2023-05-23T10:31:09;26.35;;;9.90;;
76589;SDS011;65471;55.908;37.880;2023-05-23T10:33:40;22.73;;;10.13;;
76589;SDS011;65471;55.908;37.880;2023-05-23T10:38:54;19.08;;;9.20;;
76589;SDS011;65471;55.908;37.880;2023-05-23T10:44:09;35.83;;;10.35;;
76589;SDS011;65471;55.908;37.880;2023-05-23T10:46:51;14.65;;;10.60;;
76589;SDS011;65471;55.908;37.880;2023-05-23T10:49:36;25.60;;;11.48;;
76589;SDS011;65471;55.908;37.880;2023-05-23T10:52:08;18.23;;;10.00;;
76589;SDS011;65471;55.908;37.880;2023-05-23T10:54:46;26.52;;;10.48;;
76589;SDS011;65471;55.908;37.880;2023-05-23T10:57:16;33.33;;;10.85;;
76589;SDS011;65471;55.908;37.880;2023-05-23T10:59:46;24.88;;;10.13;;
76589;SDS011;65471;55.908;37.880;2023-05-23T11:02:34;29.10;;;9.90;;
76589;SDS011;65471;55.908;37.880;2023-05-23T11:05:17;21.42;;;10.27;;
76589;SDS011;65471;55.908;37.880;2023-05-23T11:08:05;17.55;;;9.10;;
76589;SDS011;65471;55.908;37.880;2023-05-23T11:10:57;13.68;;;8.57;;
76589;SDS011;65471;55.908;37.880;2023-05-23T11:13:53;19.08;;;9.05;;
76589;SDS011;65471;55.908;37.880;2023-05-23T11:16:25;18.95;;;9.98;;
76589;SDS011;65471;55.908;37.880;2023-05-23T11:21:45;19.00;;;8.95;;
76589;SDS011;65471;55.908;37.880;2023-05-23T11:24:16;19.15;;;9.80;;
76589;SDS011;65471;55.908;37.880;2023-05-23T11:26:53;12.10;;;9.50;;
76589;SDS011;65471;55.908;37.880;2023-05-23T11:29:27;21.70;;;10.80;;
76589;SDS011;65471;55.908;37.880;2023-05-23T11:31:54;15.25;;;8.80;;
76589;SDS011;65471;55.908;37.880;2023-05-23T11:34:24;23.42;;;9.57;;
76589;SDS011;65471;55.908;37.880;2023-05-23T11:36:52;22.05;;;9.60;;
76589;SDS011;65471;55.908;37.880;2023-05-23T11:39:21;18.98;;;8.75;;
76589;SDS011;65471;55.908;37.880;2023-05-23T11:42:01;17.83;;;10.23;;
76589;SDS011;65471;55.908;37.880;2023-05-23T11:44:29;25.33;;;10.23;;
76589;SDS011;65471;55.908;37.880;2023-05-23T11:47:02;19.30;;;8.82;;
76589;SDS011;65471;55.908;37.880;2023-05-23T11:49:31;21.35;;;8.85;;
76589;SDS011;65471;55.908;37.880;2023-05-23T11:52:00;18.40;;;8.15;;
76589;SDS011;65471;55.908;37.880;2023-05-23T11:54:28;14.60;;;8.57;;
76589;SDS011;65471;55.908;37.880;2023-05-23T11:56:55;14.65;;;8.48;;
76589;SDS011;65471;55.908;37.880;2023-05-23T11:59:23;22.15;;;8.00;;
76589;SDS011;65471;55.908;37.880;2023-05-23T12:01:51;15.55;;;8.30;;
76589;SDS011;65471;55.908;37.880;2023-05-23T12:04:19;11.82;;;6.57;;
76589;SDS011;65471;55.908;37.880;2023-05-23T12:06:46;22.67;;;7.82;;
76589;SDS011;65471;55.908;37.880;2023-05-23T12:09:14;19.80;;;7.15;;
76589;SDS011;65471;55.908;37.880;2023-05-23T12:11:42;12.00;;;7.40;;
76589;SDS011;65471;55.908;37.880;2023-05-23T12:14:14;10.65;;;6.60;;
76589;SDS011;65471;55.908;37.880;2023-05-23T12:16:43;20.38;;;6.72;;
76589;SDS011;65471;55.908;37.880;2023-05-23T12:19:13;6.70;;;6.00;;
76589;SDS011;65471;55.908;37.880;2023-05-23T12:21:43;12.43;;;6.82;;
76589;SDS011;65471;55.908;37.880;2023-05-23T12:24:18;10.15;;;5.85;;
76589;SDS011;65471;55.908;37.880;2023-05-23T12:26:52;13.80;;;6.18;;
76589;SDS011;65471;55.908;37.880;2023-05-23T12:29:32;7.15;;;5.85;;
76589;SDS011;65471;55.908;37.880;2023-05-23T12:32:01;14.73;;;6.78;;
76589;SDS011;65471;55.908;37.880;2023-05-23T12:34:30;17.58;;;7.22;;
76589;SDS011;65471;55.908;37.880;2023-05-23T12:36:57;11.65;;;5.22;;
76589;SDS011;65471;55.908;37.880;2023-05-23T12:39:44;5.55;;;5.05;;
76589;SDS011;65471;55.908;37.880;2023-05-23T12:42:11;11.55;;;5.82;;
76589;SDS011;65471;55.908;37.880;2023-05-23T12:44:39;16.30;;;6.68;;
76589;SDS011;65471;55.908;37.880;2023-05-23T12:47:07;12.80;;;6.13;;
76589;SDS011;65471;55.908;37.880;2023-05-23T12:49:36;10.10;;;6.22;;
76589;SDS011;65471;55.908;37.880;2023-05-23T12:52:03;10.57;;;5.53;;
76589;SDS011;65471;55.908;37.880;2023-05-23T12:54:31;7.38;;;5.90;;
76589;SDS011;65471;55.908;37.880;2023-05-23T12:56:57;13.75;;;5.65;;
76589;SDS011;65471;55.908;37.880;2023-05-23T12:59:24;20.55;;;5.70;;
76589;SDS011;65471;55.908;37.880;2023-05-23T13:01:51;10.95;;;5.97;;
76589;SDS011;65471;55.908;37.880;2023-05-23T13:04:19;16.10;;;5.80;;
76589;SDS011;65471;55.908;37.880;2023-05-23T13:06:46;11.00;;;5.22;;
76589;SDS011;65471;55.908;37.880;2023-05-23T13:09:13;10.23;;;5.18;;
76589;SDS011;65471;55.908;37.880;2023-05-23T13:11:40;8.23;;;5.18;;
76589;SDS011;65471;55.908;37.880;2023-05-23T13:14:07;10.70;;;5.80;;
76589;SDS011;65471;55.908;37.880;2023-05-23T13:16:34;22.25;;;5.70;;
76589;SDS011;65471;55.908;37.880;2023-05-23T13:19:02;14.27;;;6.60;;
76589;SDS011;65471;55.908;37.880;2023-05-23T13:21:29;12.35;;;5.30;;
76589;SDS011;65471;55.908;37.880;2023-05-23T13:23:57;19.42;;;6.00;;
76589;SDS011;65471;55.908;37.880;2023-05-23T13:26:24;11.13;;;5.80;;
76589;SDS011;65471;55.908;37.880;2023-05-23T13:28:51;8.90;;;5.73;;
76589;SDS011;65471;55.908;37.880;2023-05-23T13:31:18;13.55;;;5.90;;
76589;SDS011;65471;55.908;37.880;2023-05-23T13:33:45;24.70;;;6.50;;
76589;SDS011;65471;55.908;37.880;2023-05-23T13:36:12;19.10;;;6.22;;
76589;SDS011;65471;55.908;37.880;2023-05-23T13:38:39;16.48;;;6.38;;
76589;SDS011;65471;55.908;37.880;2023-05-23T13:41:07;14.68;;;7.32;;
76589;SDS011;65471;55.908;37.880;2023-05-23T13:43:36;19.63;;;6.30;;
76589;SDS011;65471;55.908;37.880;2023-05-23T13:46:03;11.57;;;5.85;;
76589;SDS011;65471;55.908;37.880;2023-05-23T13:48:30;24.35;;;6.68;;
76589;SDS011;65471;55.908;37.880;2023-05-23T13:50:57;11.80;;;7.55;;
76589;SDS011;65471;55.908;37.880;2023-05-23T13:53:24;15.73;;;8.13;;
76589;SDS011;65471;55.908;37.880;2023-05-23T13:55:51;25.15;;;8.13;;
76589;SDS011;65471;55.908;37.880;2023-05-23T13:58:18;10.10;;;8.20;;
76589;SDS011;65471;55.908;37.880;2023-05-23T14:00:45;18.50;;;7.63;;
76589;SDS011;65471;55.908;37.880;2023-05-23T14:03:13;15.23;;;6.88;;
76589;SDS011;65471;55.908;37.880;2023-05-23T14:05:41;14.32;;;7.38;;
76589;SDS011;65471;55.908;37.880;2023-05-23T14:08:08;12.73;;;6.47;;
76589;SDS011;65471;55.908;37.880;2023-05-23T14:10:36;23.70;;;6.75;;
76589;SDS011;65471;55.908;37.880;2023-05-23T14:13:04;9.23;;;6.30;;
76589;SDS011;65471;55.908;37.880;2023-05-23T14:15:33;20.45;;;7.60;;
76589;SDS011;65471;55.908;37.880;2023-05-23T14:18:00;28.92;;;6.97;;
76589;SDS011;65471;55.908;37.880;2023-05-23T14:20:27;22.48;;;6.72;;
76589;SDS011;65471;55.908;37.880;2023-05-23T14:22:55;21.85;;;7.20;;
76589;SDS011;65471;55.908;37.880;2023-05-23T14:25:22;27.02;;;7.20;;
76589;SDS011;65471;55.908;37.880;2023-05-23T14:27:49;30.40;;;6.72;;
76589;SDS011;65471;55.908;37.880;2023-05-23T14:30:16;15.07;;;7.20;;
76589;SDS011;65471;55.908;37.880;2023-05-23T14:32:43;22.20;;;7.03;;
76589;SDS011;65471;55.908;37.880;2023-05-23T14:35:10;19.23;;;6.35;;
76589;SDS011;65471;55.908;37.880;2023-05-23T14:37:37;12.07;;;6.20;;
76589;SDS011;65471;55.908;37.880;2023-05-23T14:40:05;15.48;;;6.57;;
76589;SDS011;65471;55.908;37.880;2023-05-23T14:42:32;22.03;;;6.53;;
76589;SDS011;65471;55.908;37.880;2023-05-23T14:44:59;9.27;;;6.72;;
76589;SDS011;65471;55.908;37.880;2023-05-23T14:47:26;24.17;;;6.40;;
76589;SDS011;65471;55.908;37.880;2023-05-23T14:49:53;12.93;;;6.30;;
76589;SDS011;65471;55.908;37.880;2023-05-23T14:52:20;21.73;;;7.13;;
76589;SDS011;65471;55.908;37.880;2023-05-23T14:54:47;26.85;;;7.30;;